IN-0009 weather

Gangtok Helipad
Sikkim, India

Public forecast

Using degrees Celsius for public forecast. Weather courtesy of forecast.io.

METAR (pilot weather report)

Closest report is Bagdogra Airport, 43.3 nm (80.2 km) SSW. Retrieved 2019/07/20 16:30 UTC (26 minutes ago):

VEBD 201630Z VRB02KT 6000 SCT030 FEW030TCU BKN080 26/24 Q1005 TEMPO TSRA

TAF (pilot weather forecast)

Closest forecast is Bagdogra Airport, 43.3 nm (80.2 km) SSW. Retrieved 2019/07/20 12:30 UTC (4 hours ago):

TAF VEBD 200930Z 2012/2024 12010KT 6000 SCT020 SCT080 BECMG 2015/2018 12010KT 2000 TSRA SCT010 FEW030CB BKN080